sensor_id;sensor_type;location;lat;lon;timestamp;P1;P2;P0
52000;PMS5003;38015;50.924;11.598;2023-02-23T00:00:45;6;6;
52000;PMS5003;38015;50.924;11.598;2023-02-23T00:03:15;9;9;
52000;PMS5003;38015;50.924;11.598;2023-02-23T00:05:45;6;6;
52000;PMS5003;38015;50.924;11.598;2023-02-23T00:08:16;11;10;
52000;PMS5003;38015;50.924;11.598;2023-02-23T00:10:46;9;8;
52000;PMS5003;38015;50.924;11.598;2023-02-23T00:13:18;7;7;
52000;PMS5003;38015;50.924;11.598;2023-02-23T00:15:47;7;7;
52000;PMS5003;38015;50.924;11.598;2023-02-23T00:18:19;6;6;
52000;PMS5003;38015;50.924;11.598;2023-02-23T00:23:18;7;7;
52000;PMS5003;38015;50.924;11.598;2023-02-23T00:25:49;9;7;
52000;PMS5003;38015;50.924;11.598;2023-02-23T00:28:19;9;9;
52000;PMS5003;38015;50.924;11.598;2023-02-23T00:30:52;7;7;
52000;PMS5003;38015;50.924;11.598;2023-02-23T00:33:20;7;7;
52000;PMS5003;38015;50.924;11.598;2023-02-23T00:35:50;10;10;
52000;PMS5003;38015;50.924;11.598;2023-02-23T00:38:21;7;7;
52000;PMS5003;38015;50.924;11.598;2023-02-23T00:40:51;8;8;
52000;PMS5003;38015;50.924;11.598;2023-02-23T00:43:22;6;6;
52000;PMS5003;38015;50.924;11.598;2023-02-23T00:45:53;8;7;
52000;PMS5003;38015;50.924;11.598;2023-02-23T00:48:23;7;7;
52000;PMS5003;38015;50.924;11.598;2023-02-23T00:50:57;10;8;
52000;PMS5003;38015;50.924;11.598;2023-02-23T00:53:25;7;7;
52000;PMS5003;38015;50.924;11.598;2023-02-23T00:55:54;8;8;
52000;PMS5003;38015;50.924;11.598;2023-02-23T00:58:25;7;7;
52000;PMS5003;38015;50.924;11.598;2023-02-23T01:00:55;9;9;
52000;PMS5003;38015;50.924;11.598;2023-02-23T01:03:27;9;9;
52000;PMS5003;38015;50.924;11.598;2023-02-23T01:05:58;7;7;
52000;PMS5003;38015;50.924;11.598;2023-02-23T01:08:28;6;6;
52000;PMS5003;38015;50.924;11.598;2023-02-23T01:10:57;9;8;
52000;PMS5003;38015;50.924;11.598;2023-02-23T01:13:27;6;6;
52000;PMS5003;38015;50.924;11.598;2023-02-23T01:15:58;8;7;
52000;PMS5003;38015;50.924;11.598;2023-02-23T01:18:28;7;7;
52000;PMS5003;38015;50.924;11.598;2023-02-23T01:20:58;6;6;
52000;PMS5003;38015;50.924;11.598;2023-02-23T01:23:29;6;6;
52000;PMS5003;38015;50.924;11.598;2023-02-23T01:25:59;10;9;
52000;PMS5003;38015;50.924;11.598;2023-02-23T01:28:30;8;7;
52000;PMS5003;38015;50.924;11.598;2023-02-23T01:31:00;7;6;
52000;PMS5003;38015;50.924;11.598;2023-02-23T01:33:31;7;6;
52000;PMS5003;38015;50.924;11.598;2023-02-23T01:36:01;7;7;
52000;PMS5003;38015;50.924;11.598;2023-02-23T01:38:32;8;8;
52000;PMS5003;38015;50.924;11.598;2023-02-23T01:41:02;10;10;
52000;PMS5003;38015;50.924;11.598;2023-02-23T01:43:32;9;7;
52000;PMS5003;38015;50.924;11.598;2023-02-23T01:46:03;8;7;
52000;PMS5003;38015;50.924;11.598;2023-02-23T01:48:34;7;7;
52000;PMS5003;38015;50.924;11.598;2023-02-23T01:51:06;9;8;
52000;PMS5003;38015;50.924;11.598;2023-02-23T01:53:37;7;7;
52000;PMS5003;38015;50.924;11.598;2023-02-23T01:56:07;8;8;
52000;PMS5003;38015;50.924;11.598;2023-02-23T01:58:35;7;7;
52000;PMS5003;38015;50.924;11.598;2023-02-23T02:01:06;9;9;
52000;PMS5003;38015;50.924;11.598;2023-02-23T02:03:37;6;6;
52000;PMS5003;38015;50.924;11.598;2023-02-23T02:06:07;9;7;
52000;PMS5003;38015;50.924;11.598;2023-02-23T02:08:37;7;7;
52000;PMS5003;38015;50.924;11.598;2023-02-23T02:11:07;6;6;
52000;PMS5003;38015;50.924;11.598;2023-02-23T02:13:38;8;8;
52000;PMS5003;38015;50.924;11.598;2023-02-23T02:18:44;9;9;
52000;PMS5003;38015;50.924;11.598;2023-02-23T02:26:14;8;8;
52000;PMS5003;38015;50.924;11.598;2023-02-23T02:38:48;8;8;
52000;PMS5003;38015;50.924;11.598;2023-02-23T02:41:14;7;7;
52000;PMS5003;38015;50.924;11.598;2023-02-23T02:43:45;8;8;
52000;PMS5003;38015;50.924;11.598;2023-02-23T02:46:16;9;7;
52000;PMS5003;38015;50.924;11.598;2023-02-23T02:48:46;10;9;
52000;PMS5003;38015;50.924;11.598;2023-02-23T02:51:18;12;9;
52000;PMS5003;38015;50.924;11.598;2023-02-23T02:53:47;10;8;
52000;PMS5003;38015;50.924;11.598;2023-02-23T02:56:17;6;6;
52000;PMS5003;38015;50.924;11.598;2023-02-23T02:58:46;7;7;
52000;PMS5003;38015;50.924;11.598;2023-02-23T03:01:17;7;6;
52000;PMS5003;38015;50.924;11.598;2023-02-23T03:03:47;7;7;
52000;PMS5003;38015;50.924;11.598;2023-02-23T03:06:18;11;7;
52000;PMS5003;38015;50.924;11.598;2023-02-23T03:08:49;7;7;
52000;PMS5003;38015;50.924;11.598;2023-02-23T03:11:19;7;7;
52000;PMS5003;38015;50.924;11.598;2023-02-23T03:13:52;8;8;
52000;PMS5003;38015;50.924;11.598;2023-02-23T03:16:22;8;7;
52000;PMS5003;38015;50.924;11.598;2023-02-23T03:18:54;8;8;
52000;PMS5003;38015;50.924;11.598;2023-02-23T03:21:21;8;8;
52000;PMS5003;38015;50.924;11.598;2023-02-23T03:23:54;8;8;
52000;PMS5003;38015;50.924;11.598;2023-02-23T03:26:22;12;12;
52000;PMS5003;38015;50.924;11.598;2023-02-23T03:28:54;9;9;
52000;PMS5003;38015;50.924;11.598;2023-02-23T03:31:24;7;7;
52000;PMS5003;38015;50.924;11.598;2023-02-23T03:33:54;12;9;
52000;PMS5003;38015;50.924;11.598;2023-02-23T03:36:25;8;8;
52000;PMS5003;38015;50.924;11.598;2023-02-23T03:38:55;9;8;
52000;PMS5003;38015;50.924;11.598;2023-02-23T03:41:25;9;9;
52000;PMS5003;38015;50.924;11.598;2023-02-23T03:43:57;9;9;
52000;PMS5003;38015;50.924;11.598;2023-02-23T03:46:25;9;9;
52000;PMS5003;38015;50.924;11.598;2023-02-23T03:48:56;7;7;
52000;PMS5003;38015;50.924;11.598;2023-02-23T03:51:26;7;7;
52000;PMS5003;38015;50.924;11.598;2023-02-23T03:54:00;8;8;
52000;PMS5003;38015;50.924;11.598;2023-02-23T03:56:27;9;8;
52000;PMS5003;38015;50.924;11.598;2023-02-23T03:58:58;5;5;
52000;PMS5003;38015;50.924;11.598;2023-02-23T04:01:28;6;6;
52000;PMS5003;38015;50.924;11.598;2023-02-23T04:03:58;8;8;
52000;PMS5003;38015;50.924;11.598;2023-02-23T04:06:30;7;7;
52000;PMS5003;38015;50.924;11.598;2023-02-23T04:09:00;8;8;
52000;PMS5003;38015;50.924;11.598;2023-02-23T04:11:30;9;9;
52000;PMS5003;38015;50.924;11.598;2023-02-23T04:14:01;9;9;
52000;PMS5003;38015;50.924;11.598;2023-02-23T04:16:30;9;9;
52000;PMS5003;38015;50.924;11.598;2023-02-23T04:19:01;7;7;
52000;PMS5003;38015;50.924;11.598;2023-02-23T04:21:31;11;10;
52000;PMS5003;38015;50.924;11.598;2023-02-23T04:24:02;9;8;
52000;PMS5003;38015;50.924;11.598;2023-02-23T04:26:32;9;9;
52000;PMS5003;38015;50.924;11.598;2023-02-23T04:29:04;8;8;
52000;PMS5003;38015;50.924;11.598;2023-02-23T04:31:33;8;8;
52000;PMS5003;38015;50.924;11.598;2023-02-23T04:34:04;8;8;
52000;PMS5003;38015;50.924;11.598;2023-02-23T04:36:34;9;8;
52000;PMS5003;38015;50.924;11.598;2023-02-23T04:39:05;11;9;
52000;PMS5003;38015;50.924;11.598;2023-02-23T04:41:35;6;6;
52000;PMS5003;38015;50.924;11.598;2023-02-23T04:44:06;9;9;
52000;PMS5003;38015;50.924;11.598;2023-02-23T04:46:36;10;9;
52000;PMS5003;38015;50.924;11.598;2023-02-23T04:49:06;8;8;
52000;PMS5003;38015;50.924;11.598;2023-02-23T04:51:37;8;8;
52000;PMS5003;38015;50.924;11.598;2023-02-23T04:54:07;8;8;
52000;PMS5003;38015;50.924;11.598;2023-02-23T04:56:38;8;8;
52000;PMS5003;38015;50.924;11.598;2023-02-23T04:59:08;7;7;
52000;PMS5003;38015;50.924;11.598;2023-02-23T05:01:38;9;9;
52000;PMS5003;38015;50.924;11.598;2023-02-23T05:04:09;12;9;
52000;PMS5003;38015;50.924;11.598;2023-02-23T05:06:39;10;10;
52000;PMS5003;38015;50.924;11.598;2023-02-23T05:09:10;10;7;
52000;PMS5003;38015;50.924;11.598;2023-02-23T05:11:40;6;6;
52000;PMS5003;38015;50.924;11.598;2023-02-23T05:14:11;7;7;
52000;PMS5003;38015;50.924;11.598;2023-02-23T05:16:41;7;7;
52000;PMS5003;38015;50.924;11.598;2023-02-23T05:19:12;9;9;
52000;PMS5003;38015;50.924;11.598;2023-02-23T05:21:42;9;6;
52000;PMS5003;38015;50.924;11.598;2023-02-23T05:24:13;7;7;
52000;PMS5003;38015;50.924;11.598;2023-02-23T05:26:43;8;8;
52000;PMS5003;38015;50.924;11.598;2023-02-23T05:29:14;9;9;
52000;PMS5003;38015;50.924;11.598;2023-02-23T05:31:44;9;8;
52000;PMS5003;38015;50.924;11.598;2023-02-23T05:34:15;12;10;
52000;PMS5003;38015;50.924;11.598;2023-02-23T05:36:45;7;7;
52000;PMS5003;38015;50.924;11.598;2023-02-23T05:39:15;9;8;
52000;PMS5003;38015;50.924;11.598;2023-02-23T05:41:46;9;8;
52000;PMS5003;38015;50.924;11.598;2023-02-23T05:44:16;7;7;
52000;PMS5003;38015;50.924;11.598;2023-02-23T05:46:47;8;7;
52000;PMS5003;38015;50.924;11.598;2023-02-23T05:49:17;9;9;
52000;PMS5003;38015;50.924;11.598;2023-02-23T05:51:49;9;9;
52000;PMS5003;38015;50.924;11.598;2023-02-23T05:54:18;8;7;
52000;PMS5003;38015;50.924;11.598;2023-02-23T05:56:49;11;9;
52000;PMS5003;38015;50.924;11.598;2023-02-23T05:59:19;8;8;
52000;PMS5003;38015;50.924;11.598;2023-02-23T06:01:49;9;9;
52000;PMS5003;38015;50.924;11.598;2023-02-23T06:04:20;8;8;
52000;PMS5003;38015;50.924;11.598;2023-02-23T06:06:50;8;8;
52000;PMS5003;38015;50.924;11.598;2023-02-23T06:09:21;9;9;
52000;PMS5003;38015;50.924;11.598;2023-02-23T06:11:51;8;8;
52000;PMS5003;38015;50.924;11.598;2023-02-23T06:14:21;8;8;
52000;PMS5003;38015;50.924;11.598;2023-02-23T06:16:52;8;8;
52000;PMS5003;38015;50.924;11.598;2023-02-23T06:19:22;9;9;
52000;PMS5003;38015;50.924;11.598;2023-02-23T06:21:53;8;8;
52000;PMS5003;38015;50.924;11.598;2023-02-23T06:24:23;9;9;
52000;PMS5003;38015;50.924;11.598;2023-02-23T06:26:54;6;6;
52000;PMS5003;38015;50.924;11.598;2023-02-23T06:29:24;9;8;
52000;PMS5003;38015;50.924;11.598;2023-02-23T06:31:55;6;6;
52000;PMS5003;38015;50.924;11.598;2023-02-23T06:34:25;8;7;
52000;PMS5003;38015;50.924;11.598;2023-02-23T06:36:56;7;7;
52000;PMS5003;38015;50.924;11.598;2023-02-23T06:39:26;6;6;
52000;PMS5003;38015;50.924;11.598;2023-02-23T06:41:57;9;6;
52000;PMS5003;38015;50.924;11.598;2023-02-23T06:44:29;7;5;
52000;PMS5003;38015;50.924;11.598;2023-02-23T06:46:58;7;7;
52000;PMS5003;38015;50.924;11.598;2023-02-23T06:49:30;8;8;
52000;PMS5003;38015;50.924;11.598;2023-02-23T06:51:59;9;8;
52000;PMS5003;38015;50.924;11.598;2023-02-23T06:54:29;7;7;
52000;PMS5003;38015;50.924;11.598;2023-02-23T06:56:59;10;8;
52000;PMS5003;38015;50.924;11.598;2023-02-23T06:59:30;9;8;
52000;PMS5003;38015;50.924;11.598;2023-02-23T07:02:00;8;8;
52000;PMS5003;38015;50.924;11.598;2023-02-23T07:04:31;8;7;
52000;PMS5003;38015;50.924;11.598;2023-02-23T07:07:01;9;7;
52000;PMS5003;38015;50.924;11.598;2023-02-23T07:09:31;8;8;
52000;PMS5003;38015;50.924;11.598;2023-02-23T07:12:02;10;8;
52000;PMS5003;38015;50.924;11.598;2023-02-23T07:14:32;8;7;
52000;PMS5003;38015;50.924;11.598;2023-02-23T07:17:03;12;10;
52000;PMS5003;38015;50.924;11.598;2023-02-23T07:19:34;7;7;
52000;PMS5003;38015;50.924;11.598;2023-02-23T07:22:04;9;9;
52000;PMS5003;38015;50.924;11.598;2023-02-23T07:24:34;8;7;
52000;PMS5003;38015;50.924;11.598;2023-02-23T07:27:05;8;7;
52000;PMS5003;38015;50.924;11.598;2023-02-23T07:29:35;9;9;
52000;PMS5003;38015;50.924;11.598;2023-02-23T07:32:06;10;9;
52000;PMS5003;38015;50.924;11.598;2023-02-23T07:34:36;6;6;
52000;PMS5003;38015;50.924;11.598;2023-02-23T07:37:07;6;6;
52000;PMS5003;38015;50.924;11.598;2023-02-23T07:39:37;8;8;
52000;PMS5003;38015;50.924;11.598;2023-02-23T07:42:07;8;8;
52000;PMS5003;38015;50.924;11.598;2023-02-23T07:44:38;7;7;
52000;PMS5003;38015;50.924;11.598;2023-02-23T07:47:08;9;9;
52000;PMS5003;38015;50.924;11.598;2023-02-23T07:49:39;8;8;
52000;PMS5003;38015;50.924;11.598;2023-02-23T07:52:11;6;6;
52000;PMS5003;38015;50.924;11.598;2023-02-23T07:54:40;8;8;
52000;PMS5003;38015;50.924;11.598;2023-02-23T07:57:10;5;5;
52000;PMS5003;38015;50.924;11.598;2023-02-23T07:59:40;7;7;
52000;PMS5003;38015;50.924;11.598;2023-02-23T08:02:11;8;8;
52000;PMS5003;38015;50.924;11.598;2023-02-23T08:04:41;7;7;
52000;PMS5003;38015;50.924;11.598;2023-02-23T08:07:11;14;11;
52000;PMS5003;38015;50.924;11.598;2023-02-23T08:09:42;8;8;
52000;PMS5003;38015;50.924;11.598;2023-02-23T08:12:12;7;7;
52000;PMS5003;38015;50.924;11.598;2023-02-23T08:14:43;10;10;
52000;PMS5003;38015;50.924;11.598;2023-02-23T08:17:13;7;7;
52000;PMS5003;38015;50.924;11.598;2023-02-23T08:19:46;8;8;
52000;PMS5003;38015;50.924;11.598;2023-02-23T08:22:14;7;6;
52000;PMS5003;38015;50.924;11.598;2023-02-23T08:24:45;9;8;
52000;PMS5003;38015;50.924;11.598;2023-02-23T08:27:17;8;8;
52000;PMS5003;38015;50.924;11.598;2023-02-23T08:29:47;9;9;
52000;PMS5003;38015;50.924;11.598;2023-02-23T08:32:16;9;8;
52000;PMS5003;38015;50.924;11.598;2023-02-23T08:34:46;10;10;
52000;PMS5003;38015;50.924;11.598;2023-02-23T08:37:16;10;9;
52000;PMS5003;38015;50.924;11.598;2023-02-23T08:39:47;8;8;
52000;PMS5003;38015;50.924;11.598;2023-02-23T08:42:17;13;12;
52000;PMS5003;38015;50.924;11.598;2023-02-23T08:44:48;13;11;
52000;PMS5003;38015;50.924;11.598;2023-02-23T08:47:18;10;9;
52000;PMS5003;38015;50.924;11.598;2023-02-23T08:49:49;9;9;
52000;PMS5003;38015;50.924;11.598;2023-02-23T08:52:19;6;6;
52000;PMS5003;38015;50.924;11.598;2023-02-23T08:54:50;7;7;
52000;PMS5003;38015;50.924;11.598;2023-02-23T08:57:20;8;7;
52000;PMS5003;38015;50.924;11.598;2023-02-23T08:59:51;10;10;
52000;PMS5003;38015;50.924;11.598;2023-02-23T09:02:22;10;10;
52000;PMS5003;38015;50.924;11.598;2023-02-23T09:04:51;10;10;
52000;PMS5003;38015;50.924;11.598;2023-02-23T09:07:22;9;9;
52000;PMS5003;38015;50.924;11.598;2023-02-23T09:09:53;10;10;
52000;PMS5003;38015;50.924;11.598;2023-02-23T09:12:23;10;9;
52000;PMS5003;38015;50.924;11.598;2023-02-23T09:14:53;11;11;
52000;PMS5003;38015;50.924;11.598;2023-02-23T09:17:23;11;11;
52000;PMS5003;38015;50.924;11.598;2023-02-23T09:19:54;14;13;
52000;PMS5003;38015;50.924;11.598;2023-02-23T09:22:25;14;13;
52000;PMS5003;38015;50.924;11.598;2023-02-23T09:24:54;13;12;
52000;PMS5003;38015;50.924;11.598;2023-02-23T09:27:25;9;9;
52000;PMS5003;38015;50.924;11.598;2023-02-23T09:29:55;12;10;
52000;PMS5003;38015;50.924;11.598;2023-02-23T09:32:26;11;11;
52000;PMS5003;38015;50.924;11.598;2023-02-23T09:34:56;14;11;
52000;PMS5003;38015;50.924;11.598;2023-02-23T09:37:27;13;12;
52000;PMS5003;38015;50.924;11.598;2023-02-23T09:39:57;11;11;
52000;PMS5003;38015;50.924;11.598;2023-02-23T09:42:31;10;10;
52000;PMS5003;38015;50.924;11.598;2023-02-23T09:45:03;16;15;
52000;PMS5003;38015;50.924;11.598;2023-02-23T09:47:31;13;12;
52000;PMS5003;38015;50.924;11.598;2023-02-23T09:49:59;12;11;
52000;PMS5003;38015;50.924;11.598;2023-02-23T09:52:34;12;11;
52000;PMS5003;38015;50.924;11.598;2023-02-23T09:54:59;12;11;
52000;PMS5003;38015;50.924;11.598;2023-02-23T09:57:32;10;10;
52000;PMS5003;38015;50.924;11.598;2023-02-23T10:00:00;11;11;
52000;PMS5003;38015;50.924;11.598;2023-02-23T10:02:32;15;13;
52000;PMS5003;38015;50.924;11.598;2023-02-23T10:05:02;15;15;
52000;PMS5003;38015;50.924;11.598;2023-02-23T10:07:33;12;11;
52000;PMS5003;38015;50.924;11.598;2023-02-23T10:10:07;14;13;
52000;PMS5003;38015;50.924;11.598;2023-02-23T10:12:34;16;13;
52000;PMS5003;38015;50.924;11.598;2023-02-23T10:15:08;14;13;
52000;PMS5003;38015;50.924;11.598;2023-02-23T10:17:35;15;15;
52000;PMS5003;38015;50.924;11.598;2023-02-23T10:20:06;15;12;
52000;PMS5003;38015;50.924;11.598;2023-02-23T10:22:34;12;12;
52000;PMS5003;38015;50.924;11.598;2023-02-23T10:25:06;13;13;
52000;PMS5003;38015;50.924;11.598;2023-02-23T10:27:37;11;10;
52000;PMS5003;38015;50.924;11.598;2023-02-23T10:32:38;10;10;
52000;PMS5003;38015;50.924;11.598;2023-02-23T10:35:10;12;10;
52000;PMS5003;38015;50.924;11.598;2023-02-23T10:37:37;11;8;
52000;PMS5003;38015;50.924;11.598;2023-02-23T10:40:13;12;10;
52000;PMS5003;38015;50.924;11.598;2023-02-23T10:42:38;11;10;
52000;PMS5003;38015;50.924;11.598;2023-02-23T10:45:12;16;13;
52000;PMS5003;38015;50.924;11.598;2023-02-23T10:47:39;14;12;
52000;PMS5003;38015;50.924;11.598;2023-02-23T10:50:10;11;10;
52000;PMS5003;38015;50.924;11.598;2023-02-23T10:52:40;12;10;
52000;PMS5003;38015;50.924;11.598;2023-02-23T10:57:41;14;13;
52000;PMS5003;38015;50.924;11.598;2023-02-23T11:02:42;12;12;
52000;PMS5003;38015;50.924;11.598;2023-02-23T11:07:42;12;11;
52000;PMS5003;38015;50.924;11.598;2023-02-23T11:12:43;13;12;
52000;PMS5003;38015;50.924;11.598;2023-02-23T11:17:43;13;12;
52000;PMS5003;38015;50.924;11.598;2023-02-23T11:20:25;11;11;
52000;PMS5003;38015;50.924;11.598;2023-02-23T11:22:43;10;10;
52000;PMS5003;38015;50.924;11.598;2023-02-23T11:25:14;12;12;
52000;PMS5003;38015;50.924;11.598;2023-02-23T11:27:46;12;12;
52000;PMS5003;38015;50.924;11.598;2023-02-23T11:30:14;11;11;
52000;PMS5003;38015;50.924;11.598;2023-02-23T11:32:45;11;11;
52000;PMS5003;38015;50.924;11.598;2023-02-23T11:37:46;11;11;
52000;PMS5003;38015;50.924;11.598;2023-02-23T11:40:18;11;9;
52000;PMS5003;38015;50.924;11.598;2023-02-23T11:42:50;13;12;
52000;PMS5003;38015;50.924;11.598;2023-02-23T11:45:18;11;10;
52000;PMS5003;38015;50.924;11.598;2023-02-23T11:47:48;9;9;
52000;PMS5003;38015;50.924;11.598;2023-02-23T11:50:19;9;9;
52000;PMS5003;38015;50.924;11.598;2023-02-23T11:52:48;10;10;
52000;PMS5003;38015;50.924;11.598;2023-02-23T11:55:18;11;10;
52000;PMS5003;38015;50.924;11.598;2023-02-23T11:57:51;11;10;
52000;PMS5003;38015;50.924;11.598;2023-02-23T12:00:22;12;11;
52000;PMS5003;38015;50.924;11.598;2023-02-23T12:02:50;10;10;
52000;PMS5003;38015;50.924;11.598;2023-02-23T12:05:21;12;10;
52000;PMS5003;38015;50.924;11.598;2023-02-23T12:07:53;10;10;
52000;PMS5003;38015;50.924;11.598;2023-02-23T12:10:21;10;9;
52000;PMS5003;38015;50.924;11.598;2023-02-23T12:12:54;11;10;
52000;PMS5003;38015;50.924;11.598;2023-02-23T12:15:29;14;11;
52000;PMS5003;38015;50.924;11.598;2023-02-23T12:17:52;9;9;
52000;PMS5003;38015;50.924;11.598;2023-02-23T12:20:23;10;10;
52000;PMS5003;38015;50.924;11.598;2023-02-23T12:22:56;12;10;
52000;PMS5003;38015;50.924;11.598;2023-02-23T12:25:24;9;9;
52000;PMS5003;38015;50.924;11.598;2023-02-23T12:27:57;13;11;
52000;PMS5003;38015;50.924;11.598;2023-02-23T12:30:26;10;9;
52000;PMS5003;38015;50.924;11.598;2023-02-23T12:32:55;12;11;
52000;PMS5003;38015;50.924;11.598;2023-02-23T12:35:26;8;8;
52000;PMS5003;38015;50.924;11.598;2023-02-23T12:37:57;8;8;
52000;PMS5003;38015;50.924;11.598;2023-02-23T12:40:29;9;9;
52000;PMS5003;38015;50.924;11.598;2023-02-23T12:42:58;10;10;
52000;PMS5003;38015;50.924;11.598;2023-02-23T12:45:32;9;9;
52000;PMS5003;38015;50.924;11.598;2023-02-23T12:47:59;10;9;
52000;PMS5003;38015;50.924;11.598;2023-02-23T12:50:28;10;10;
52000;PMS5003;38015;50.924;11.598;2023-02-23T12:53:03;10;10;
52000;PMS5003;38015;50.924;11.598;2023-02-23T12:55:31;11;11;
52000;PMS5003;38015;50.924;11.598;2023-02-23T12:58:01;13;12;
52000;PMS5003;38015;50.924;11.598;2023-02-23T13:00:34;11;11;
52000;PMS5003;38015;50.924;11.598;2023-02-23T13:05:30;8;8;
52000;PMS5003;38015;50.924;11.598;2023-02-23T13:08:02;11;8;
52000;PMS5003;38015;50.924;11.598;2023-02-23T13:10:34;10;9;
52000;PMS5003;38015;50.924;11.598;2023-02-23T13:13:04;10;10;
52000;PMS5003;38015;50.924;11.598;2023-02-23T13:15:38;9;9;
52000;PMS5003;38015;50.924;11.598;2023-02-23T13:18:04;10;10;
52000;PMS5003;38015;50.924;11.598;2023-02-23T13:20:34;14;11;
52000;PMS5003;38015;50.924;11.598;2023-02-23T13:23:08;8;8;
52000;PMS5003;38015;50.924;11.598;2023-02-23T13:25:35;11;11;
52000;PMS5003;38015;50.924;11.598;2023-02-23T13:28:04;10;9;
52000;PMS5003;38015;50.924;11.598;2023-02-23T13:30:34;11;9;
52000;PMS5003;38015;50.924;11.598;2023-02-23T13:33:07;9;9;
52000;PMS5003;38015;50.924;11.598;2023-02-23T13:35:35;10;8;
52000;PMS5003;38015;50.924;11.598;2023-02-23T13:38:07;11;11;
52000;PMS5003;38015;50.924;11.598;2023-02-23T13:40:37;13;9;
52000;PMS5003;38015;50.924;11.598;2023-02-23T13:43:08;10;9;
52000;PMS5003;38015;50.924;11.598;2023-02-23T13:45:41;6;6;
52000;PMS5003;38015;50.924;11.598;2023-02-23T13:50:39;9;9;
52000;PMS5003;38015;50.924;11.598;2023-02-23T13:55:43;10;9;
52000;PMS5003;38015;50.924;11.598;2023-02-23T13:58:10;10;9;
52000;PMS5003;38015;50.924;11.598;2023-02-23T14:00:39;12;10;
52000;PMS5003;38015;50.924;11.598;2023-02-23T14:05:40;10;10;
52000;PMS5003;38015;50.924;11.598;2023-02-23T14:10:40;11;11;
52000;PMS5003;38015;50.924;11.598;2023-02-23T14:15:43;11;8;
52000;PMS5003;38015;50.924;11.598;2023-02-23T14:20:43;14;11;
52000;PMS5003;38015;50.924;11.598;2023-02-23T14:23:14;10;10;
52000;PMS5003;38015;50.924;11.598;2023-02-23T14:25:44;12;11;
52000;PMS5003;38015;50.924;11.598;2023-02-23T14:30:43;16;16;
52000;PMS5003;38015;50.924;11.598;2023-02-23T14:35:46;15;12;
52000;PMS5003;38015;50.924;11.598;2023-02-23T14:38:20;12;11;
52000;PMS5003;38015;50.924;11.598;2023-02-23T14:40:45;15;14;
52000;PMS5003;38015;50.924;11.598;2023-02-23T14:45:45;11;11;
52000;PMS5003;38015;50.924;11.598;2023-02-23T14:48:15;9;9;
52000;PMS5003;38015;50.924;11.598;2023-02-23T14:50:46;13;13;
52000;PMS5003;38015;50.924;11.598;2023-02-23T14:53:17;15;13;
52000;PMS5003;38015;50.924;11.598;2023-02-23T14:55:47;18;13;
52000;PMS5003;38015;50.924;11.598;2023-02-23T14:58:21;16;13;
52000;PMS5003;38015;50.924;11.598;2023-02-23T15:00:47;14;13;
52000;PMS5003;38015;50.924;11.598;2023-02-23T15:03:17;12;11;
52000;PMS5003;38015;50.924;11.598;2023-02-23T15:05:49;11;10;
52000;PMS5003;38015;50.924;11.598;2023-02-23T15:08:19;11;11;
52000;PMS5003;38015;50.924;11.598;2023-02-23T15:10:49;12;12;
52000;PMS5003;38015;50.924;11.598;2023-02-23T15:13:19;13;12;
52000;PMS5003;38015;50.924;11.598;2023-02-23T15:15:49;11;11;
52000;PMS5003;38015;50.924;11.598;2023-02-23T15:18:20;11;11;
52000;PMS5003;38015;50.924;11.598;2023-02-23T15:20:50;14;12;
52000;PMS5003;38015;50.924;11.598;2023-02-23T15:23:20;12;10;
52000;PMS5003;38015;50.924;11.598;2023-02-23T15:25:50;12;10;
52000;PMS5003;38015;50.924;11.598;2023-02-23T15:28:22;12;9;
52000;PMS5003;38015;50.924;11.598;2023-02-23T15:30:53;9;9;
52000;PMS5003;38015;50.924;11.598;2023-02-23T15:33:21;9;9;
52000;PMS5003;38015;50.924;11.598;2023-02-23T15:35:52;11;10;
52000;PMS5003;38015;50.924;11.598;2023-02-23T15:38:23;13;13;
52000;PMS5003;38015;50.924;11.598;2023-02-23T15:40:53;11;11;
52000;PMS5003;38015;50.924;11.598;2023-02-23T15:43:23;10;10;
52000;PMS5003;38015;50.924;11.598;2023-02-23T15:45:53;13;10;
52000;PMS5003;38015;50.924;11.598;2023-02-23T15:48:25;12;12;
52000;PMS5003;38015;50.924;11.598;2023-02-23T15:50:54;12;12;
52000;PMS5003;38015;50.924;11.598;2023-02-23T15:53:27;9;9;
52000;PMS5003;38015;50.924;11.598;2023-02-23T15:55:55;14;11;
52000;PMS5003;38015;50.924;11.598;2023-02-23T15:58:26;10;10;
52000;PMS5003;38015;50.924;11.598;2023-02-23T16:00:56;9;7;
52000;PMS5003;38015;50.924;11.598;2023-02-23T16:03:28;12;11;
52000;PMS5003;38015;50.924;11.598;2023-02-23T16:05:58;9;9;
52000;PMS5003;38015;50.924;11.598;2023-02-23T16:08:27;11;10;
52000;PMS5003;38015;50.924;11.598;2023-02-23T16:11:00;10;10;
52000;PMS5003;38015;50.924;11.598;2023-02-23T16:13:27;10;9;
52000;PMS5003;38015;50.924;11.598;2023-02-23T16:15:58;14;12;
52000;PMS5003;38015;50.924;11.598;2023-02-23T16:18:33;9;8;
52000;PMS5003;38015;50.924;11.598;2023-02-23T16:21:00;13;11;
52000;PMS5003;38015;50.924;11.598;2023-02-23T16:23:30;9;9;
52000;PMS5003;38015;50.924;11.598;2023-02-23T16:26:06;12;12;
52000;PMS5003;38015;50.924;11.598;2023-02-23T16:28:31;10;10;
52000;PMS5003;38015;50.924;11.598;2023-02-23T16:31:02;10;10;
52000;PMS5003;38015;50.924;11.598;2023-02-23T16:36:06;9;8;
52000;PMS5003;38015;50.924;11.598;2023-02-23T16:38:34;13;10;
52000;PMS5003;38015;50.924;11.598;2023-02-23T16:41:03;9;9;
52000;PMS5003;38015;50.924;11.598;2023-02-23T16:43:33;14;14;
52000;PMS5003;38015;50.924;11.598;2023-02-23T16:46:04;10;9;
52000;PMS5003;38015;50.924;11.598;2023-02-23T16:48:36;11;10;
52000;PMS5003;38015;50.924;11.598;2023-02-23T16:51:08;11;10;
52000;PMS5003;38015;50.924;11.598;2023-02-23T16:53:37;11;10;
52000;PMS5003;38015;50.924;11.598;2023-02-23T16:56:06;11;11;
52000;PMS5003;38015;50.924;11.598;2023-02-23T16:58:36;17;9;
52000;PMS5003;38015;50.924;11.598;2023-02-23T17:01:08;14;12;
52000;PMS5003;38015;50.924;11.598;2023-02-23T17:03:38;9;9;
52000;PMS5003;38015;50.924;11.598;2023-02-23T17:06:07;12;12;
52000;PMS5003;38015;50.924;11.598;2023-02-23T17:08:38;10;9;
52000;PMS5003;38015;50.924;11.598;2023-02-23T17:11:08;11;11;
52000;PMS5003;38015;50.924;11.598;2023-02-23T17:13:39;11;11;
52000;PMS5003;38015;50.924;11.598;2023-02-23T17:16:10;13;12;
52000;PMS5003;38015;50.924;11.598;2023-02-23T17:18:39;11;9;
52000;PMS5003;38015;50.924;11.598;2023-02-23T17:21:11;11;11;
52000;PMS5003;38015;50.924;11.598;2023-02-23T17:23:40;9;9;
52000;PMS5003;38015;50.924;11.598;2023-02-23T17:26:11;12;11;
52000;PMS5003;38015;50.924;11.598;2023-02-23T17:28:41;10;9;
52000;PMS5003;38015;50.924;11.598;2023-02-23T17:31:11;9;9;
52000;PMS5003;38015;50.924;11.598;2023-02-23T17:33:42;11;10;
52000;PMS5003;38015;50.924;11.598;2023-02-23T17:36:13;12;12;
52000;PMS5003;38015;50.924;11.598;2023-02-23T17:38:43;11;10;
52000;PMS5003;38015;50.924;11.598;2023-02-23T17:41:14;13;12;
52000;PMS5003;38015;50.924;11.598;2023-02-23T17:43:43;12;12;